createdAt,value
2017-08-02T00:01:37.807Z,16.87
2017-08-02T00:02:18.660Z,16.8
2017-08-02T00:02:58.926Z,16.81
2017-08-02T00:03:39.341Z,16.82
2017-08-02T00:04:19.717Z,16.73
2017-08-02T00:05:00.144Z,16.72
2017-08-02T00:05:40.563Z,16.7
2017-08-02T00:06:20.982Z,16.66
2017-08-02T00:07:01.382Z,16.63
2017-08-02T00:07:41.804Z,16.63
2017-08-02T00:08:22.197Z,16.6
2017-08-02T00:09:02.555Z,16.63
2017-08-02T00:09:42.953Z,16.6
2017-08-02T00:11:37.766Z,16.62
2017-08-02T00:12:22.024Z,16.54
2017-08-02T00:13:02.423Z,16.47
2017-08-02T00:13:42.832Z,16.51
2017-08-02T00:14:23.211Z,16.54
2017-08-02T00:15:03.661Z,16.51
2017-08-02T00:15:44.029Z,16.54
2017-08-02T00:17:22.400Z,16.45
2017-08-02T00:18:02.786Z,16.45
2017-08-02T00:20:15.722Z,16.47
2017-08-02T00:20:56.422Z,16.36
2017-08-02T00:21:36.710Z,16.32
2017-08-02T00:22:17.127Z,16.36
2017-08-02T00:22:57.536Z,16.44
2017-08-02T00:23:38.008Z,16.32
2017-08-02T00:24:18.376Z,16.27
2017-08-02T00:26:11.149Z,16.27
2017-08-02T00:26:51.151Z,16.3
2017-08-02T00:27:31.585Z,16.27
2017-08-02T00:28:12.008Z,16.29
2017-08-02T00:28:52.366Z,16.23
2017-08-02T00:29:32.780Z,16.16
2017-08-02T00:31:26.053Z,16.22
2017-08-02T00:32:14.988Z,16.29
2017-08-02T00:32:55.393Z,16.23
2017-08-02T00:33:35.776Z,16.3
2017-08-02T00:34:16.152Z,16.26
2017-08-02T00:34:56.599Z,16.29
2017-08-02T00:35:37.051Z,16.26
2017-08-02T00:36:17.437Z,16.23
2017-08-02T00:36:57.910Z,16.25
2017-08-02T00:37:38.247Z,16.22
2017-08-02T00:38:18.667Z,16.13
2017-08-02T00:38:59.080Z,16.17
2017-08-02T00:39:39.497Z,16.18
2017-08-02T00:40:19.963Z,16.22
2017-08-02T00:41:00.368Z,16.13
2017-08-02T00:41:40.757Z,16.07
2017-08-02T00:42:21.196Z,16.03
2017-08-02T00:43:01.643Z,16.03
2017-08-02T00:43:42.089Z,16.01
2017-08-02T00:44:22.443Z,15.95
2017-08-02T00:45:02.874Z,15.93
2017-08-02T00:45:43.244Z,15.89
2017-08-02T00:46:23.691Z,15.99
2017-08-02T00:47:04.132Z,15.95
2017-08-02T00:47:44.556Z,15.99
2017-08-02T00:48:25.043Z,15.96
2017-08-02T00:52:00.581Z,16.03
2017-08-02T00:56:09.436Z,16.1
2017-08-02T00:57:02.814Z,16.06
2017-08-02T00:57:56.577Z,16.07
2017-08-02T00:58:50.878Z,16.06
2017-08-02T00:59:44.842Z,16.1
2017-08-02T01:00:37.985Z,16.03
2017-08-02T01:01:32.460Z,16.03
2017-08-02T01:02:24.952Z,16.04
2017-08-02T01:03:20.818Z,16.06
2017-08-02T01:04:15.918Z,15.93
2017-08-02T01:05:10.998Z,15.93
2017-08-02T01:06:05.365Z,15.99
2017-08-02T01:07:02.446Z,15.99
2017-08-02T01:07:56.120Z,15.89
2017-08-02T01:08:50.561Z,15.95
2017-08-02T01:09:45.281Z,15.93
2017-08-02T01:10:41.236Z,15.96
2017-08-02T01:11:35.629Z,16.03
2017-08-02T01:12:29.375Z,16.06
2017-08-02T01:13:24.845Z,16.08
2017-08-02T01:14:19.041Z,15.99
2017-08-02T01:15:12.093Z,16.04
2017-08-02T01:16:05.154Z,15.99
2017-08-02T01:16:59.362Z,15.93
2017-08-02T01:17:54.316Z,15.96
2017-08-02T01:18:48.328Z,15.95
2017-08-02T01:19:44.782Z,15.93
2017-08-02T01:20:37.873Z,15.92
2017-08-02T01:21:34.274Z,15.95
2017-08-02T01:22:28.543Z,15.84
2017-08-02T01:23:25.413Z,15.86
2017-08-02T01:24:19.440Z,15.89
2017-08-02T01:25:13.374Z,15.88
2017-08-02T01:26:12.970Z,15.86
2017-08-02T01:27:07.900Z,15.86
2017-08-02T01:28:02.430Z,15.81
2017-08-02T01:28:58.511Z,15.84
2017-08-02T01:29:52.321Z,15.85
2017-08-02T01:30:37.807Z,15.86
2017-08-02T01:31:18.227Z,15.81
2017-08-02T01:31:58.574Z,15.77
2017-08-02T01:32:39.009Z,15.8
2017-08-02T01:33:19.429Z,15.77
2017-08-02T01:33:59.817Z,15.71
2017-08-02T01:34:40.152Z,15.71
2017-08-02T01:35:20.591Z,15.71
2017-08-02T01:36:00.962Z,15.66
2017-08-02T01:36:41.290Z,15.74
2017-08-02T01:37:21.925Z,15.77
2017-08-02T01:38:02.251Z,15.77
2017-08-02T01:38:42.672Z,15.76
2017-08-02T01:39:23.026Z,15.86
2017-08-02T01:40:03.408Z,15.85
2017-08-02T01:40:43.835Z,15.8
2017-08-02T01:41:24.287Z,15.77
2017-08-02T01:42:04.697Z,15.81
2017-08-02T01:42:45.036Z,15.84
2017-08-02T01:43:25.868Z,15.84
2017-08-02T01:44:05.893Z,15.85
2017-08-02T01:44:46.267Z,15.84
2017-08-02T01:45:26.777Z,15.76
2017-08-02T01:46:07.238Z,15.77
2017-08-02T01:46:47.683Z,15.74
2017-08-02T01:47:28.217Z,15.84
2017-08-02T01:48:08.699Z,15.84
2017-08-02T01:48:49.059Z,15.7
2017-08-02T01:49:29.467Z,15.73
2017-08-02T01:50:09.847Z,15.77
2017-08-02T01:50:50.255Z,15.68
2017-08-02T01:51:30.760Z,15.67
2017-08-02T01:52:11.287Z,15.68
2017-08-02T01:52:51.758Z,15.73
2017-08-02T01:53:32.336Z,15.68
2017-08-02T01:54:12.815Z,15.84
2017-08-02T01:54:53.401Z,15.76
2017-08-02T01:55:33.643Z,15.81
2017-08-02T01:56:14.628Z,15.77
2017-08-02T01:56:54.649Z,15.84
2017-08-02T01:57:35.028Z,15.8
2017-08-02T01:58:15.390Z,15.81
2017-08-02T01:58:55.885Z,15.85
2017-08-02T01:59:36.185Z,15.77
2017-08-02T02:00:16.698Z,15.78
2017-08-02T02:00:57.066Z,15.86
2017-08-02T02:01:37.624Z,15.84
2017-08-02T02:02:17.993Z,15.84
2017-08-02T02:02:58.366Z,15.84
2017-08-02T02:03:38.769Z,15.84
2017-08-02T02:04:19.252Z,15.89
2017-08-02T02:04:59.651Z,15.88
2017-08-02T02:05:40.014Z,16.04
2017-08-02T02:06:20.389Z,15.99
2017-08-02T02:07:00.844Z,16.03
2017-08-02T02:07:41.219Z,16.04
2017-08-02T02:08:21.604Z,16.08
2017-08-02T02:09:01.975Z,16.01
2017-08-02T02:09:42.447Z,16.03
2017-08-02T02:10:22.803Z,15.99
2017-08-02T02:11:03.283Z,16.07
2017-08-02T02:11:43.680Z,16.1
2017-08-02T02:12:24.121Z,16.14
2017-08-02T02:13:04.481Z,16.22
2017-08-02T02:13:44.909Z,16.22
2017-08-02T02:14:25.275Z,16.25
2017-08-02T02:15:05.683Z,16.25
2017-08-02T02:15:46.109Z,16.27
2017-08-02T02:16:26.437Z,16.26
2017-08-02T02:17:06.917Z,16.17
2017-08-02T02:17:47.281Z,16.14
2017-08-02T02:18:27.677Z,16.27
2017-08-02T02:19:08.068Z,16.23
2017-08-02T02:19:48.513Z,16.26
2017-08-02T02:20:28.860Z,16.27
2017-08-02T02:21:09.291Z,16.27
2017-08-02T02:21:49.712Z,16.27
2017-08-02T02:22:30.130Z,16.32
2017-08-02T02:23:10.433Z,16.25
2017-08-02T02:23:50.905Z,16.27
2017-08-02T02:24:31.243Z,16.26
2017-08-02T02:25:11.714Z,16.29
2017-08-02T02:25:52.061Z,16.26
2017-08-02T02:26:32.501Z,16.27
2017-08-02T02:27:12.952Z,16.29
2017-08-02T02:27:53.340Z,16.32
2017-08-02T02:28:33.659Z,16.27
2017-08-02T02:29:14.233Z,16.25
2017-08-02T02:29:54.564Z,16.22
2017-08-02T02:30:34.975Z,16.25
2017-08-02T02:31:15.371Z,16.26
2017-08-02T02:31:56.427Z,16.11
2017-08-02T02:32:36.303Z,16.08
2017-08-02T02:33:16.686Z,16.14
2017-08-02T02:33:57.053Z,16.14
2017-08-02T02:34:37.475Z,16.11
2017-08-02T02:35:18.219Z,16.1
2017-08-02T02:35:58.534Z,16.07
2017-08-02T02:36:38.980Z,16.14
2017-08-02T02:37:19.428Z,16.13
2017-08-02T02:37:59.827Z,16.04
2017-08-02T02:38:40.333Z,16.08
2017-08-02T02:39:20.700Z,16.13
2017-08-02T02:40:01.346Z,16.03
2017-08-02T02:40:41.954Z,16.06
2017-08-02T02:41:22.283Z,16.01
2017-08-02T02:42:03.116Z,16.06
2017-08-02T02:42:43.277Z,16.06
2017-08-02T02:43:23.613Z,15.98
2017-08-02T02:44:04.233Z,16.06
2017-08-02T02:44:44.680Z,15.99
2017-08-02T02:45:25.503Z,16.04
2017-08-02T02:46:05.894Z,16.07
2017-08-02T02:46:46.391Z,16.1
2017-08-02T02:47:26.764Z,16.11
2017-08-02T02:48:07.317Z,16.16
2017-08-02T02:48:47.746Z,16.16
2017-08-02T02:49:28.502Z,16.13
2017-08-02T02:50:08.965Z,16.14
2017-08-02T02:50:49.224Z,16.08
2017-08-02T02:51:29.697Z,16.07
2017-08-02T02:52:10.035Z,16.03
2017-08-02T02:52:50.469Z,16.11
2017-08-02T02:53:30.810Z,16.13
2017-08-02T02:54:11.227Z,16.08
2017-08-02T02:54:51.589Z,16.07
2017-08-02T02:55:31.986Z,16.18
2017-08-02T02:56:12.419Z,16.26
2017-08-02T02:56:52.857Z,16.36
2017-08-02T02:57:33.207Z,16.37
2017-08-02T02:58:13.607Z,16.48
2017-08-02T02:58:53.990Z,16.48
2017-08-02T02:59:34.407Z,16.47
2017-08-02T03:00:14.790Z,16.57
2017-08-02T03:00:55.198Z,16.5
2017-08-02T03:01:35.633Z,16.54
2017-08-02T03:02:16.069Z,16.6
2017-08-02T03:02:56.518Z,16.5
2017-08-02T03:03:36.925Z,16.55
2017-08-02T03:04:17.383Z,16.48
2017-08-02T03:04:57.726Z,16.48
2017-08-02T03:05:38.177Z,16.5
2017-08-02T03:06:18.700Z,16.36
2017-08-02T03:06:59.132Z,16.44
2017-08-02T03:07:39.623Z,16.32
2017-08-02T03:08:20.073Z,16.3
2017-08-02T03:09:00.704Z,16.25
2017-08-02T03:09:41.159Z,16.18
2017-08-02T03:10:21.415Z,16.25
2017-08-02T03:11:01.819Z,16.27
2017-08-02T03:11:42.536Z,16.14
2017-08-02T03:12:22.654Z,16.23
2017-08-02T03:13:03.058Z,16.22
2017-08-02T03:13:43.536Z,16.11
2017-08-02T03:14:23.952Z,16.13
2017-08-02T03:15:04.233Z,16.1
2017-08-02T03:15:44.635Z,16.17
2017-08-02T03:16:25.218Z,16.14
2017-08-02T03:17:05.517Z,16.14
2017-08-02T03:17:46.069Z,16.25
2017-08-02T03:18:26.470Z,16.16
2017-08-02T03:19:06.944Z,16.22
2017-08-02T03:19:47.315Z,16.13
2017-08-02T03:20:27.719Z,16.22
2017-08-02T03:21:08.185Z,16.1
2017-08-02T03:21:48.526Z,16.25
2017-08-02T03:22:29.042Z,16.26
2017-08-02T03:23:09.427Z,16.23
2017-08-02T03:23:49.974Z,16.13
2017-08-02T03:24:30.298Z,16.23
2017-08-02T03:25:10.737Z,16.26
2017-08-02T03:25:51.108Z,16.34
2017-08-02T03:26:31.607Z,16.32
2017-08-02T03:27:12.132Z,16.29
2017-08-02T03:27:52.435Z,16.27
2017-08-02T03:28:32.961Z,16.23
2017-08-02T03:29:13.452Z,16.22
2017-08-02T03:29:53.892Z,16.16
2017-08-02T03:30:34.273Z,16.27
2017-08-02T03:31:14.707Z,16.22
2017-08-02T03:31:55.074Z,16.27
2017-08-02T03:32:35.954Z,16.18
2017-08-02T03:33:16.449Z,16.18
2017-08-02T03:33:56.798Z,16.16
2017-08-02T03:34:37.342Z,16.17
2017-08-02T03:35:17.916Z,16.27
2017-08-02T03:35:58.164Z,16.25
2017-08-02T03:36:38.624Z,16.18
2017-08-02T03:37:19.197Z,16.25
2017-08-02T03:37:59.590Z,16.13
2017-08-02T03:38:39.976Z,16.22
2017-08-02T03:39:20.438Z,16.11
2017-08-02T03:40:00.854Z,16.18
2017-08-02T03:40:41.290Z,16.1
2017-08-02T03:41:21.678Z,16.22
2017-08-02T03:42:02.309Z,16.1
2017-08-02T03:42:42.679Z,16.08
2017-08-02T03:43:23.187Z,16.01
2017-08-02T03:44:04.069Z,16.03
2017-08-02T03:44:44.473Z,15.98
2017-08-02T03:45:24.972Z,16.03
2017-08-02T03:46:05.304Z,16.03
2017-08-02T03:46:45.646Z,15.93
2017-08-02T03:47:26.041Z,15.84
2017-08-02T03:48:06.507Z,15.85
2017-08-02T03:48:46.905Z,15.88
2017-08-02T03:49:27.333Z,15.86
2017-08-02T03:50:07.762Z,15.84
2017-08-02T03:50:48.302Z,15.77
2017-08-02T03:51:28.681Z,15.88
2017-08-02T03:52:09.172Z,15.84
2017-08-02T03:52:49.573Z,15.85
2017-08-02T03:53:30.025Z,15.81
2017-08-02T03:54:10.458Z,15.85
2017-08-02T03:54:50.913Z,15.78
2017-08-02T03:55:31.287Z,15.8
2017-08-02T03:56:11.783Z,15.84
2017-08-02T03:56:52.084Z,15.85
2017-08-02T03:57:32.477Z,15.84
2017-08-02T03:58:12.938Z,15.78
2017-08-02T03:58:53.364Z,15.8
2017-08-02T03:59:33.921Z,15.84
2017-08-02T04:00:14.614Z,15.77
2017-08-02T04:00:54.859Z,15.81
2017-08-02T04:01:35.581Z,15.85
2017-08-02T04:02:16.114Z,15.81
2017-08-02T04:02:56.601Z,15.86
2017-08-02T04:03:37.053Z,15.93
2017-08-02T04:04:17.681Z,15.86
2017-08-02T04:04:57.944Z,15.88
2017-08-02T04:05:38.520Z,15.81
2017-08-02T04:06:19.001Z,15.8
2017-08-02T04:06:59.601Z,15.89
2017-08-02T04:07:40.230Z,15.89
2017-08-02T04:08:20.985Z,15.88
2017-08-02T04:09:01.267Z,15.84
2017-08-02T04:09:42.064Z,15.85
2017-08-02T04:10:22.125Z,15.84
2017-08-02T04:11:02.610Z,15.85
2017-08-02T04:11:43.114Z,15.92
2017-08-02T04:12:23.582Z,15.88
2017-08-02T04:13:04.049Z,15.88
2017-08-02T04:13:44.477Z,15.89
2017-08-02T04:14:25.002Z,15.95
2017-08-02T04:15:05.353Z,16.03
2017-08-02T04:15:45.781Z,15.96
2017-08-02T04:16:26.220Z,16.08
2017-08-02T04:17:06.608Z,16.03
2017-08-02T04:17:46.977Z,15.92
2017-08-02T04:18:27.521Z,15.95
2017-08-02T04:19:07.970Z,16.01
2017-08-02T04:19:48.730Z,15.96
2017-08-02T04:20:29.277Z,16.04
2017-08-02T04:21:09.733Z,16.03
2017-08-02T04:21:50.140Z,16.04
2017-08-02T04:22:30.543Z,16.03
2017-08-02T04:23:11.045Z,16.04
2017-08-02T04:23:51.589Z,16.11
2017-08-02T04:24:31.891Z,16.08
2017-08-02T04:25:12.294Z,16.1
2017-08-02T04:25:52.653Z,16.07
2017-08-02T04:26:33.122Z,16.1
2017-08-02T04:27:13.601Z,16.26
2017-08-02T04:27:54.042Z,16.13
2017-08-02T04:28:34.494Z,16.29
2017-08-02T04:29:15.184Z,16.32
2017-08-02T04:29:55.307Z,16.33
2017-08-02T04:30:35.761Z,16.27
2017-08-02T04:31:16.159Z,16.32
2017-08-02T04:31:56.674Z,16.29
2017-08-02T04:32:37.144Z,16.29
2017-08-02T04:33:17.548Z,16.29
2017-08-02T04:33:57.941Z,16.26
2017-08-02T04:34:38.494Z,16.27
2017-08-02T04:35:19.159Z,16.33
2017-08-02T04:35:59.379Z,16.26
2017-08-02T04:36:39.994Z,16.32
2017-08-02T04:37:20.346Z,16.34
2017-08-02T04:38:00.885Z,16.37
2017-08-02T04:38:41.322Z,16.34
2017-08-02T04:39:21.927Z,16.36
2017-08-02T04:40:02.782Z,16.41
2017-08-02T04:40:43.333Z,16.45
2017-08-02T04:41:23.846Z,16.54
2017-08-02T04:42:04.166Z,16.52
2017-08-02T04:42:44.814Z,16.57
2017-08-02T04:43:25.225Z,16.62
2017-08-02T04:44:05.657Z,16.63
2017-08-02T04:44:46.068Z,16.7
2017-08-02T04:45:26.656Z,16.69
2017-08-02T04:46:06.811Z,16.77
2017-08-02T04:46:47.394Z,16.78
2017-08-02T04:47:27.802Z,16.75
2017-08-02T04:48:08.686Z,16.82
2017-08-02T04:48:48.694Z,16.75
2017-08-02T04:49:29.090Z,16.88
2017-08-02T04:51:19.415Z,16.8
2017-08-02T04:53:12.325Z,16.95
2017-08-02T04:55:33.084Z,17.33
2017-08-02T04:56:12.882Z,17.39
2017-08-02T04:56:53.286Z,17.38
2017-08-02T04:57:33.718Z,17.36
2017-08-02T04:58:14.144Z,17.39
2017-08-02T04:58:54.594Z,17.4
2017-08-02T04:59:34.980Z,17.36
2017-08-02T05:00:15.447Z,17.47
2017-08-02T05:00:55.922Z,17.43
2017-08-02T05:01:36.283Z,17.47
2017-08-02T05:02:16.656Z,17.49
2017-08-02T05:02:57.026Z,17.55
2017-08-02T05:03:37.491Z,17.53
2017-08-02T05:04:17.925Z,17.68
2017-08-02T05:04:58.514Z,17.7
2017-08-02T05:05:39.000Z,17.77
2017-08-02T05:06:19.374Z,17.87
2017-08-02T05:06:59.821Z,18.02
2017-08-02T05:07:40.160Z,18.17
2017-08-02T05:08:20.592Z,18.32
2017-08-02T05:09:01.096Z,18.38
2017-08-02T05:09:41.453Z,18.59
2017-08-02T05:10:21.853Z,18.79
2017-08-02T05:11:02.280Z,18.83
2017-08-02T05:11:42.690Z,18.97
2017-08-02T05:12:23.300Z,19.07
2017-08-02T05:13:03.691Z,19.1
2017-08-02T05:13:44.134Z,19.25
2017-08-02T05:14:24.633Z,19.32
2017-08-02T05:15:04.981Z,19.5
2017-08-02T05:15:45.420Z,19.72
2017-08-02T05:16:25.894Z,19.76
2017-08-02T05:17:06.325Z,19.76
2017-08-02T05:17:46.736Z,19.61
2017-08-02T05:18:27.115Z,19.5
2017-08-02T05:19:07.558Z,19.25
2017-08-02T05:19:48.012Z,19.1
2017-08-02T05:20:28.450Z,19.06
2017-08-02T05:21:08.879Z,18.94
2017-08-02T05:21:49.323Z,18.9
2017-08-02T05:22:29.687Z,18.9
2017-08-02T05:23:10.212Z,18.89
2017-08-02T05:23:50.696Z,18.91
2017-08-02T05:24:31.133Z,18.93
2017-08-02T05:25:11.629Z,18.87
2017-08-02T05:25:52.074Z,18.79
2017-08-02T05:26:32.424Z,18.82
2017-08-02T05:27:12.915Z,18.83
2017-08-02T05:27:53.357Z,18.83
2017-08-02T05:28:33.811Z,18.83
2017-08-02T05:29:14.274Z,18.74
2017-08-02T05:29:54.752Z,18.75
2017-08-02T05:30:35.165Z,18.76
2017-08-02T05:32:58.325Z,18.86
2017-08-02T05:36:06.053Z,18.93
2017-08-02T05:36:49.271Z,18.99
2017-08-02T05:37:29.721Z,19.01
2017-08-02T05:38:10.130Z,19.09
2017-08-02T05:38:50.471Z,19.07
2017-08-02T05:39:31.156Z,19.23
2017-08-02T05:41:45.762Z,19.5
2017-08-02T05:42:26.027Z,19.61
2017-08-02T05:43:09.166Z,19.72
2017-08-02T05:45:24.878Z,20.07
2017-08-02T05:46:05.090Z,20.07
2017-08-02T05:46:45.569Z,20.1
2017-08-02T05:47:25.961Z,20.3
2017-08-02T05:48:06.322Z,20.3
2017-08-02T05:48:46.863Z,20.33
2017-08-02T05:49:27.308Z,20.44
2017-08-02T05:51:44.447Z,20.33
2017-08-02T05:52:29.714Z,20.46
2017-08-02T05:53:10.168Z,20.48
2017-08-02T05:53:50.551Z,20.53
2017-08-02T05:54:30.983Z,20.54
2017-08-02T05:55:11.378Z,20.46
2017-08-02T05:55:51.756Z,20.48
2017-08-02T05:57:41.546Z,20.41
2017-08-02T05:58:21.604Z,20.37
2017-08-02T05:59:01.967Z,20.46
2017-08-02T05:59:42.436Z,20.51
2017-08-02T06:00:22.873Z,20.53
2017-08-02T06:01:03.432Z,20.51
2017-08-02T06:01:43.804Z,20.46
2017-08-02T06:02:24.230Z,20.42
2017-08-02T06:03:04.672Z,20.44
2017-08-02T06:06:49.939Z,20.22
2017-08-02T06:07:31.240Z,20.1
2017-08-02T06:08:12.579Z,20.12
2017-08-02T06:08:53.967Z,20.12
2017-08-02T06:09:34.372Z,20.08
2017-08-02T06:10:14.754Z,20.02
2017-08-02T06:10:56.118Z,20
2017-08-02T06:11:36.555Z,20.07
2017-08-02T06:12:17.007Z,20.08
2017-08-02T06:12:57.750Z,20.16
2017-08-02T06:13:38.174Z,20.23
2017-08-02T06:14:18.887Z,20.42
2017-08-02T06:14:59.196Z,20.54
2017-08-02T06:15:39.535Z,20.5
2017-08-02T06:16:19.937Z,20.63
2017-08-02T06:17:01.568Z,21.09
2017-08-02T06:17:45.197Z,21.4
2017-08-02T06:18:26.741Z,21.53
2017-08-02T06:20:23.003Z,21.96
2017-08-02T06:21:04.834Z,22.14
2017-08-02T06:21:45.811Z,22.3
2017-08-02T06:22:28.830Z,22.64
2017-08-02T06:23:10.175Z,22.84
2017-08-02T06:23:50.555Z,23.31
2017-08-02T06:24:31.047Z,23.41
2017-08-02T06:25:11.421Z,23.62
2017-08-02T06:25:52.469Z,24.08
2017-08-02T06:26:33.495Z,24.09
2017-08-02T06:27:14.219Z,23.9
2017-08-02T06:27:54.596Z,24.16
2017-08-02T06:28:35.034Z,24.36
2017-08-02T06:29:15.556Z,24.61
2017-08-02T06:29:56.083Z,24.82
2017-08-02T06:33:42.197Z,26.5
2017-08-02T06:34:22.403Z,26.68
2017-08-02T06:35:02.825Z,26.84
2017-08-02T06:35:43.206Z,27.15
2017-08-02T06:36:23.664Z,27.53
2017-08-02T06:37:04.107Z,27.88
2017-08-02T06:37:44.626Z,28.24
2017-08-02T06:38:25.077Z,28.23
2017-08-02T06:39:05.456Z,28.67
2017-08-02T06:39:46.004Z,28.92
2017-08-02T06:40:26.455Z,29
2017-08-02T06:41:06.956Z,29.35
2017-08-02T06:41:47.632Z,29.66
2017-08-02T06:42:28.091Z,30.04
2017-08-02T06:43:08.528Z,30.26
2017-08-02T06:43:49.060Z,30.28
2017-08-02T06:44:29.371Z,30.37
2017-08-02T06:45:09.821Z,30.19
2017-08-02T06:45:50.254Z,30.08
2017-08-02T06:46:30.875Z,29.91
2017-08-02T06:47:11.721Z,29.57
2017-08-02T06:47:52.915Z,29.45
2017-08-02T06:48:33.597Z,29.41
2017-08-02T06:49:14.228Z,28.94
2017-08-02T06:49:56.086Z,28.88
2017-08-02T06:50:36.871Z,28.89
2017-08-02T06:51:17.741Z,28.79
2017-08-02T06:52:03.905Z,28.83
2017-08-02T06:52:46.255Z,28.91
2017-08-02T06:53:29.898Z,28.97
2017-08-02T06:54:15.120Z,29.03
2017-08-02T06:54:56.038Z,29.14
2017-08-02T06:55:37.229Z,29.1
2017-08-02T06:56:33.238Z,29.1
2017-08-02T06:57:14.069Z,29.12
2017-08-02T06:57:54.518Z,29.26
2017-08-02T06:58:35.141Z,29.14
2017-08-02T06:59:15.501Z,29.36
2017-08-02T06:59:55.911Z,29.42
2017-08-02T07:00:36.468Z,29.18
2017-08-02T07:01:16.791Z,29.25
2017-08-02T07:01:57.497Z,29.17
2017-08-02T07:02:38.271Z,29.14
2017-08-02T07:03:19.387Z,29.12
2017-08-02T07:03:59.549Z,29.11
2017-08-02T07:04:40.053Z,29.11
2017-08-02T07:05:20.638Z,29.14
2017-08-02T07:06:01.093Z,28.98
2017-08-02T07:06:41.768Z,29.14
2017-08-02T07:07:24.875Z,29.11
2017-08-02T07:09:16.019Z,28.73
2017-08-02T07:09:55.887Z,28.69
2017-08-02T07:10:36.500Z,28.67
2017-08-02T07:11:17.393Z,28.6
2017-08-02T07:11:57.936Z,28.42
2017-08-02T07:12:38.383Z,28.36
2017-08-02T07:14:38.864Z,28.55
2017-08-02T07:15:25.948Z,28.43
2017-08-02T07:16:05.763Z,28.32
2017-08-02T07:16:46.289Z,28.28
2017-08-02T07:17:26.839Z,28.35
2017-08-02T07:18:07.398Z,28.18
2017-08-02T07:18:47.944Z,28.06
2017-08-02T07:19:29.183Z,27.93
2017-08-02T07:20:09.604Z,27.84
2017-08-02T07:20:50.463Z,27.87
2017-08-02T07:21:30.980Z,27.8
2017-08-02T07:22:11.445Z,27.68
2017-08-02T07:22:52.067Z,27.58
2017-08-02T07:23:32.800Z,27.59
2017-08-02T07:24:13.203Z,27.69
2017-08-02T07:24:53.699Z,27.5
2017-08-02T07:25:34.813Z,27.34
2017-08-02T07:26:15.257Z,27.34
2017-08-02T07:26:55.705Z,27.2
2017-08-02T07:27:36.322Z,27.01
2017-08-02T07:28:16.782Z,26.71
2017-08-02T07:28:58.043Z,26.59
2017-08-02T07:29:38.479Z,26.64
2017-08-02T07:30:18.835Z,26.66
2017-08-02T07:30:59.349Z,26.56
2017-08-02T07:31:39.783Z,26.61
2017-08-02T07:32:20.337Z,26.72
2017-08-02T07:33:00.955Z,26.71
2017-08-02T07:33:41.298Z,26.69
2017-08-02T07:34:21.900Z,26.71
2017-08-02T07:35:02.477Z,26.73
2017-08-02T07:35:42.999Z,26.76
2017-08-02T07:36:23.417Z,26.81
2017-08-02T07:37:04.468Z,26.86
2017-08-02T07:37:45.078Z,27.01
2017-08-02T07:38:25.540Z,27.08
2017-08-02T07:39:06.556Z,27.12
2017-08-02T07:39:47.156Z,27.33
2017-08-02T07:40:27.679Z,27.76
2017-08-02T07:41:08.382Z,27.93
2017-08-02T07:41:49.060Z,28.24
2017-08-02T07:42:29.446Z,28.24
2017-08-02T07:43:10.128Z,28.15
2017-08-02T07:43:50.507Z,27.81
2017-08-02T07:44:31.368Z,27.66
2017-08-02T07:45:11.716Z,27.4
2017-08-02T07:45:52.239Z,27.43
2017-08-02T07:46:34.416Z,27.27
2017-08-02T07:47:14.967Z,27.31
2017-08-02T07:47:55.284Z,27.09
2017-08-02T07:48:35.883Z,26.84
2017-08-02T07:49:16.530Z,26.68
2017-08-02T07:49:57.035Z,26.56
2017-08-02T07:50:37.985Z,26.51
2017-08-02T07:51:18.619Z,26.5
2017-08-02T07:51:59.194Z,26.34
2017-08-02T07:52:40.300Z,26.29
2017-08-02T07:53:20.763Z,26.19
2017-08-02T07:54:01.209Z,26.27
2017-08-02T07:54:41.772Z,26.21
2017-08-02T07:55:22.408Z,26.2
2017-08-02T07:56:05.702Z,26.29
2017-08-02T07:56:46.765Z,26.17
2017-08-02T07:57:27.233Z,26.31
2017-08-02T07:58:08.158Z,26.24
2017-08-02T07:58:50.083Z,26.44
2017-08-02T07:59:31.248Z,26.34
2017-08-02T08:00:14.689Z,26.5
2017-08-02T08:00:55.625Z,26.46
2017-08-02T08:01:36.062Z,26.32
2017-08-02T08:02:17.046Z,26.23
2017-08-02T08:02:57.771Z,26.21
2017-08-02T08:03:38.273Z,26.2
2017-08-02T08:04:18.845Z,26.19
2017-08-02T08:04:59.340Z,26.2
2017-08-02T08:05:39.761Z,26.38
2017-08-02T08:06:20.378Z,26.47
2017-08-02T08:07:00.942Z,26.44
2017-08-02T08:07:41.499Z,26.17
2017-08-02T08:08:22.349Z,26.2
2017-08-02T08:09:03.042Z,26.16
2017-08-02T08:09:43.591Z,26.11
2017-08-02T08:10:24.678Z,26.03
2017-08-02T08:11:04.985Z,26.01
2017-08-02T08:11:45.625Z,25.82
2017-08-02T08:12:26.549Z,25.75
2017-08-02T08:13:06.995Z,25.66
2017-08-02T08:13:47.412Z,25.74
2017-08-02T08:14:27.916Z,25.78
2017-08-02T08:15:08.296Z,25.72
2017-08-02T08:18:02.723Z,25.76
2017-08-02T08:20:03.750Z,26.11
2017-08-02T08:21:03.465Z,26.21
2017-08-02T08:21:58.588Z,26.57
2017-08-02T08:22:56.546Z,26.73
2017-08-02T08:23:52.138Z,26.96
2017-08-02T08:24:48.959Z,27.12
2017-08-02T08:27:12.585Z,27.24
2017-08-02T08:27:53.304Z,27.16
2017-08-02T08:28:33.564Z,27.09
2017-08-02T08:29:14.645Z,27.08
2017-08-02T08:29:55.089Z,26.94
2017-08-02T08:30:37.190Z,27.02
2017-08-02T08:31:18.016Z,26.9
2017-08-02T08:31:58.269Z,26.86
2017-08-02T08:33:54.773Z,26.46
2017-08-02T08:34:38.422Z,26.32
2017-08-02T08:35:21.473Z,26.34
2017-08-02T08:36:02.031Z,26.31
2017-08-02T08:36:42.563Z,26.31
2017-08-02T08:37:23.084Z,26.32
2017-08-02T08:38:03.666Z,26.38
2017-08-02T08:38:44.676Z,26.44
2017-08-02T08:39:25.259Z,26.51
2017-08-02T08:40:05.820Z,26.41
2017-08-02T08:40:46.796Z,26.41
2017-08-02T08:41:28.739Z,26.49
2017-08-02T08:42:09.102Z,26.59
2017-08-02T08:42:50.549Z,26.56
2017-08-02T08:43:31.241Z,26.65
2017-08-02T08:44:11.573Z,26.66
2017-08-02T08:47:10.302Z,26.93
2017-08-02T08:48:04.191Z,27.06
2017-08-02T08:48:55.607Z,27.05
2017-08-02T08:49:36.076Z,27.02
2017-08-02T08:50:17.382Z,27.11
2017-08-02T08:50:58.434Z,27.11
2017-08-02T08:51:39.017Z,27.16
2017-08-02T08:52:19.530Z,27.24
2017-08-02T08:52:59.867Z,27.35
2017-08-02T08:56:22.020Z,27.18
2017-08-02T08:57:13.694Z,27.01
2017-08-02T08:57:54.070Z,27.01
2017-08-02T08:58:34.521Z,27.09
2017-08-02T08:59:15.058Z,27.15
2017-08-02T08:59:55.534Z,27.3
2017-08-02T09:00:35.964Z,27.18
2017-08-02T09:01:17.961Z,27.27
2017-08-02T09:01:58.541Z,27.34
2017-08-02T09:02:41.191Z,27.35
2017-08-02T09:03:21.467Z,27.38
2017-08-02T09:04:01.860Z,27.34
2017-08-02T09:04:42.349Z,27.31
2017-08-02T09:05:22.829Z,27.24
2017-08-02T09:06:03.210Z,27.33
2017-08-02T09:06:43.900Z,27.39
2017-08-02T09:07:24.319Z,27.35
2017-08-02T09:08:04.705Z,27.42
2017-08-02T09:08:45.583Z,27.31
2017-08-02T09:09:26.454Z,27.24
2017-08-02T09:10:08.464Z,27.31
2017-08-02T09:10:49.235Z,27.25
2017-08-02T09:11:31.321Z,27.27
2017-08-02T09:12:11.907Z,27.27
2017-08-02T09:12:52.447Z,27.2
2017-08-02T09:13:32.922Z,27.28
2017-08-02T09:14:13.536Z,27.3
2017-08-02T09:14:54.915Z,27.31
2017-08-02T09:15:35.392Z,27.34
2017-08-02T09:16:16.424Z,27.23
2017-08-02T09:16:56.806Z,27.3
2017-08-02T09:17:37.291Z,27.25
2017-08-02T09:18:17.742Z,27.39
2017-08-02T09:18:59.091Z,27.43
2017-08-02T09:19:39.633Z,27.48
2017-08-02T09:20:20.009Z,27.21
2017-08-02T09:21:00.469Z,27.3
2017-08-02T09:21:40.865Z,27.34
2017-08-02T09:22:21.902Z,27.25
2017-08-02T09:23:03.412Z,27.24
2017-08-02T09:23:44.366Z,27.34
2017-08-02T09:24:26.830Z,27.39
2017-08-02T09:25:07.054Z,27.53
2017-08-02T09:25:47.497Z,27.61
2017-08-02T09:26:28.069Z,27.5
2017-08-02T09:27:08.533Z,27.61
2017-08-02T09:27:48.848Z,27.63
2017-08-02T09:28:29.301Z,27.66
2017-08-02T09:29:10.674Z,27.65
2017-08-02T09:29:50.894Z,27.66
2017-08-02T09:30:31.283Z,27.8
2017-08-02T09:31:11.647Z,27.86
2017-08-02T09:31:52.266Z,27.84
2017-08-02T09:33:42.943Z,27.53
2017-08-02T09:35:24.454Z,27.8
2017-08-02T09:36:24.314Z,27.68
2017-08-02T09:37:14.098Z,27.88
2017-08-02T09:37:54.550Z,27.87
2017-08-02T09:38:34.893Z,27.84
2017-08-02T09:39:15.345Z,27.93
2017-08-02T09:39:55.846Z,27.91
2017-08-02T09:40:36.336Z,27.88
2017-08-02T09:41:18.709Z,27.98
2017-08-02T09:41:59.130Z,27.9
2017-08-02T09:42:40.201Z,28.02
2017-08-02T09:43:20.642Z,28.06
2017-08-02T09:44:01.014Z,28.17
2017-08-02T09:44:41.501Z,28.32
2017-08-02T09:45:22.065Z,28.3
2017-08-02T09:46:02.473Z,28.38
2017-08-02T09:46:42.908Z,28.35
2017-08-02T09:47:23.256Z,28.39
2017-08-02T09:48:03.717Z,28.46